createdAt,value
2017-03-11T00:00:09.940Z,0
2017-03-11T00:01:21.401Z,0
2017-03-11T00:02:32.868Z,0
2017-03-11T00:03:44.304Z,0
2017-03-11T00:04:55.935Z,0
2017-03-11T00:06:07.387Z,0
2017-03-11T00:07:19.027Z,0
2017-03-11T00:08:30.493Z,0
2017-03-11T00:09:41.929Z,0
2017-03-11T00:10:53.426Z,0
2017-03-11T00:12:04.875Z,0
2017-03-11T00:13:16.333Z,0
2017-03-11T00:14:27.806Z,0
2017-03-11T00:15:39.468Z,0
2017-03-11T00:16:50.916Z,0
2017-03-11T00:18:02.392Z,0
2017-03-11T00:19:14.023Z,0
2017-03-11T00:20:25.464Z,0
2017-03-11T00:21:36.893Z,0
2017-03-11T00:22:48.329Z,0
2017-03-11T00:23:59.806Z,0
2017-03-11T00:25:11.247Z,0
2017-03-11T00:26:22.697Z,0
2017-03-11T00:27:34.128Z,0
2017-03-11T00:28:45.587Z,0
2017-03-11T00:29:57.029Z,0
2017-03-11T00:31:08.706Z,0
2017-03-11T00:32:20.151Z,0
2017-03-11T00:33:31.595Z,0
2017-03-11T00:34:43.043Z,0
2017-03-11T00:35:54.506Z,0
2017-03-11T00:37:06.164Z,0
2017-03-11T00:38:17.632Z,0
2017-03-11T00:39:29.068Z,0
2017-03-11T00:40:40.733Z,0
2017-03-11T00:41:52.180Z,0
2017-03-11T00:43:03.620Z,0
2017-03-11T00:44:15.047Z,0
2017-03-11T00:45:26.507Z,0
2017-03-11T00:46:38.186Z,0
2017-03-11T00:47:49.847Z,0
2017-03-11T00:49:01.279Z,0
2017-03-11T00:50:12.722Z,0
2017-03-11T00:51:24.168Z,0
2017-03-11T00:52:35.605Z,0
2017-03-11T00:53:47.252Z,0
2017-03-11T00:54:58.689Z,0
2017-03-11T00:56:10.142Z,0
2017-03-11T00:57:21.589Z,0
2017-03-11T00:58:33.246Z,0
2017-03-11T00:59:44.705Z,0
2017-03-11T01:00:56.150Z,0
2017-03-11T01:02:07.597Z,0
2017-03-11T01:03:19.071Z,0
2017-03-11T01:04:30.914Z,0
2017-03-11T01:05:42.343Z,0
2017-03-11T01:06:53.791Z,0
2017-03-11T01:08:05.256Z,0
2017-03-11T01:09:16.704Z,0
2017-03-11T01:10:28.166Z,0
2017-03-11T01:11:39.800Z,0
2017-03-11T01:12:51.280Z,0
2017-03-11T01:14:02.722Z,0
2017-03-11T01:15:14.161Z,0
2017-03-11T01:16:25.810Z,0
2017-03-11T01:17:37.472Z,0
2017-03-11T01:18:49.121Z,0
2017-03-11T01:20:00.562Z,0
2017-03-11T01:21:12.012Z,0
2017-03-11T01:22:23.450Z,0
2017-03-11T01:23:34.886Z,0
2017-03-11T01:24:46.326Z,0
2017-03-11T01:25:57.766Z,0
2017-03-11T01:27:09.388Z,0
2017-03-11T01:28:20.835Z,0
2017-03-11T01:29:32.473Z,0
2017-03-11T01:30:43.919Z,0
2017-03-11T01:31:55.372Z,0
2017-03-11T01:33:06.819Z,0
2017-03-11T01:34:18.334Z,0
2017-03-11T01:35:29.771Z,0
2017-03-11T01:36:41.216Z,0
2017-03-11T01:37:52.660Z,0
2017-03-11T01:39:04.096Z,0
2017-03-11T01:40:15.548Z,0
2017-03-11T01:41:26.989Z,0
2017-03-11T01:42:38.460Z,0
2017-03-11T01:43:49.924Z,0
2017-03-11T01:45:01.626Z,0
2017-03-11T01:46:13.091Z,0
2017-03-11T01:47:24.527Z,0
2017-03-11T01:48:35.969Z,0
2017-03-11T01:49:47.612Z,0
2017-03-11T01:50:59.058Z,0
2017-03-11T01:52:10.707Z,0
2017-03-11T01:53:22.149Z,0
2017-03-11T01:54:33.592Z,0
2017-03-11T01:55:45.335Z,0
2017-03-11T01:56:56.762Z,0
2017-03-11T01:58:08.235Z,0
2017-03-11T01:59:19.701Z,0
2017-03-11T02:00:31.154Z,0
2017-03-11T02:01:42.588Z,0
2017-03-11T02:02:54.044Z,0
2017-03-11T02:04:05.696Z,0
2017-03-11T02:05:17.333Z,0
2017-03-11T02:06:28.765Z,0
2017-03-11T02:07:40.200Z,0
2017-03-11T02:08:51.643Z,0
2017-03-11T02:10:03.068Z,0
2017-03-11T02:11:14.512Z,0
2017-03-11T02:12:25.984Z,0
2017-03-11T02:13:37.435Z,0
2017-03-11T02:14:48.895Z,0
2017-03-11T02:16:00.323Z,0
2017-03-11T02:17:11.773Z,0
2017-03-11T02:18:23.228Z,0
2017-03-11T02:19:34.875Z,0
2017-03-11T02:20:46.317Z,0
2017-03-11T02:21:57.822Z,0
2017-03-11T02:23:09.255Z,0
2017-03-11T02:24:20.683Z,0
2017-03-11T02:25:32.131Z,0
2017-03-11T02:26:43.577Z,0
2017-03-11T02:27:55.015Z,0
2017-03-11T02:29:06.663Z,0
2017-03-11T02:30:18.139Z,0
2017-03-11T02:31:29.594Z,0
2017-03-11T02:32:41.053Z,0
2017-03-11T02:33:52.503Z,0
2017-03-11T02:35:03.927Z,0
2017-03-11T02:36:15.397Z,0
2017-03-11T02:37:27.030Z,0
2017-03-11T02:38:38.467Z,0
2017-03-11T02:39:49.908Z,0
2017-03-11T02:41:01.559Z,0
2017-03-11T02:42:12.996Z,0
2017-03-11T02:43:24.423Z,0
2017-03-11T02:44:35.883Z,0
2017-03-11T02:45:47.328Z,0
2017-03-11T02:46:58.767Z,0
2017-03-11T02:48:10.216Z,0
2017-03-11T02:49:21.662Z,0
2017-03-11T02:50:33.109Z,0
2017-03-11T02:51:44.555Z,0
2017-03-11T02:52:56.007Z,0
2017-03-11T02:54:07.440Z,0
2017-03-11T02:55:18.871Z,0
2017-03-11T02:56:30.498Z,0
2017-03-11T02:57:41.936Z,0
2017-03-11T02:58:53.388Z,0
2017-03-11T03:00:04.837Z,0
2017-03-11T03:01:16.667Z,0
2017-03-11T03:02:28.115Z,0
2017-03-11T03:03:39.562Z,0
2017-03-11T03:04:51.011Z,0
2017-03-11T03:06:02.466Z,0
2017-03-11T03:07:14.102Z,0
2017-03-11T03:08:25.609Z,0
2017-03-11T03:09:37.242Z,0
2017-03-11T03:10:48.678Z,0
2017-03-11T03:12:00.116Z,0
2017-03-11T03:13:11.541Z,0
2017-03-11T03:14:23.017Z,0
2017-03-11T03:15:34.694Z,0
2017-03-11T03:16:46.126Z,0
2017-03-11T03:17:57.555Z,0
2017-03-11T03:19:08.999Z,0
2017-03-11T03:20:20.426Z,0
2017-03-11T03:21:31.852Z,0
2017-03-11T03:22:43.301Z,0
2017-03-11T03:23:54.977Z,0
2017-03-11T03:25:06.409Z,0
2017-03-11T03:26:18.040Z,0
2017-03-11T03:27:29.469Z,0
2017-03-11T03:28:40.893Z,0
2017-03-11T03:29:52.328Z,0
2017-03-11T03:31:03.768Z,0
2017-03-11T03:32:15.439Z,0
2017-03-11T03:33:26.884Z,0
2017-03-11T03:34:38.603Z,0
2017-03-11T03:35:50.641Z,0
2017-03-11T03:37:02.293Z,0
2017-03-11T03:38:13.936Z,0
2017-03-11T03:39:25.372Z,0
2017-03-11T03:40:36.812Z,0
2017-03-11T03:41:48.274Z,0
2017-03-11T03:42:59.711Z,0
2017-03-11T03:44:11.141Z,0
2017-03-11T03:45:22.807Z,0
2017-03-11T03:46:34.256Z,0
2017-03-11T03:47:45.718Z,0
2017-03-11T03:48:57.184Z,0
2017-03-11T03:50:08.669Z,0
2017-03-11T03:51:20.365Z,0
2017-03-11T03:52:32.023Z,0
2017-03-11T03:53:43.475Z,0
2017-03-11T03:54:54.929Z,0
2017-03-11T03:56:06.371Z,0
2017-03-11T03:57:17.802Z,0
2017-03-11T03:58:29.457Z,0
2017-03-11T03:59:40.899Z,0
2017-03-11T04:00:52.410Z,0
2017-03-11T04:02:03.841Z,0
2017-03-11T04:03:15.290Z,0
2017-03-11T04:04:26.734Z,0
2017-03-11T04:05:38.177Z,0
2017-03-11T04:06:49.826Z,0
2017-03-11T04:08:01.259Z,0
2017-03-11T04:09:12.725Z,0
2017-03-11T04:10:24.241Z,0
2017-03-11T04:11:35.680Z,0
2017-03-11T04:12:47.117Z,0
2017-03-11T04:13:58.570Z,0
2017-03-11T04:15:10.047Z,0
2017-03-11T04:16:21.480Z,0
2017-03-11T04:17:32.923Z,0
2017-03-11T04:18:44.372Z,0
2017-03-11T04:19:56.215Z,0
2017-03-11T04:21:07.671Z,0
2017-03-11T04:22:19.123Z,0
2017-03-11T04:23:30.556Z,0
2017-03-11T04:24:41.999Z,0
2017-03-11T04:25:53.446Z,0
2017-03-11T04:27:04.883Z,0
2017-03-11T04:28:16.327Z,0
2017-03-11T04:29:27.779Z,0
2017-03-11T04:30:39.228Z,0
2017-03-11T04:31:50.718Z,0
2017-03-11T04:33:02.354Z,0
2017-03-11T04:34:13.805Z,0
2017-03-11T04:35:25.629Z,0
2017-03-11T04:36:37.062Z,0
2017-03-11T04:37:48.720Z,0
2017-03-11T04:39:00.156Z,0
2017-03-11T04:40:11.789Z,0
2017-03-11T04:41:23.240Z,0
2017-03-11T04:42:34.675Z,0
2017-03-11T04:43:46.133Z,0
2017-03-11T04:44:57.566Z,0
2017-03-11T04:46:09.232Z,0
2017-03-11T04:47:20.934Z,0
2017-03-11T04:48:32.591Z,0
2017-03-11T04:49:44.075Z,0
2017-03-11T04:50:55.911Z,0
2017-03-11T04:52:07.354Z,0
2017-03-11T04:53:18.992Z,0
2017-03-11T04:54:30.439Z,0
2017-03-11T04:55:41.884Z,0
2017-03-11T04:56:53.320Z,0
2017-03-11T04:58:04.946Z,0
2017-03-11T04:59:16.600Z,0
2017-03-11T05:00:28.228Z,0
2017-03-11T05:01:39.885Z,0
2017-03-11T05:02:51.589Z,0
2017-03-11T05:04:03.020Z,0
2017-03-11T05:05:14.451Z,0
2017-03-11T05:06:25.911Z,0
2017-03-11T05:07:37.370Z,0
2017-03-11T05:08:48.807Z,0
2017-03-11T05:10:00.451Z,0
2017-03-11T05:11:12.100Z,0
2017-03-11T05:12:23.525Z,0
2017-03-11T05:13:35.009Z,0
2017-03-11T05:14:46.458Z,0
2017-03-11T05:15:57.908Z,0
2017-03-11T05:17:09.349Z,0
2017-03-11T05:18:20.978Z,0
2017-03-11T05:19:32.631Z,0
2017-03-11T05:20:44.066Z,0
2017-03-11T05:21:55.505Z,0
2017-03-11T05:23:06.943Z,4
2017-03-11T05:24:18.376Z,4
2017-03-11T05:25:30.062Z,4
2017-03-11T05:26:41.725Z,4
2017-03-11T05:27:53.180Z,4
2017-03-11T05:29:04.661Z,8
2017-03-11T05:30:16.081Z,8
2017-03-11T05:31:27.521Z,12
2017-03-11T05:32:38.950Z,12
2017-03-11T05:33:50.398Z,16
2017-03-11T05:35:01.890Z,24
2017-03-11T05:36:13.348Z,28
2017-03-11T05:37:24.824Z,36
2017-03-11T05:38:36.461Z,44
2017-03-11T05:39:47.913Z,52
2017-03-11T05:40:59.376Z,64
2017-03-11T05:42:10.826Z,80
2017-03-11T05:43:22.283Z,92
2017-03-11T05:44:33.705Z,112
2017-03-11T05:45:45.182Z,136
2017-03-11T05:46:56.623Z,160
2017-03-11T05:48:08.074Z,188
2017-03-11T05:49:19.509Z,220
2017-03-11T05:50:30.957Z,252
2017-03-11T05:51:42.595Z,288
2017-03-11T05:52:54.235Z,328
2017-03-11T05:54:05.668Z,368
2017-03-11T05:55:17.312Z,420
2017-03-11T05:56:28.744Z,468
2017-03-11T05:57:40.197Z,524
2017-03-11T05:58:51.625Z,584
2017-03-11T06:00:03.086Z,648
2017-03-11T06:01:14.529Z,712
2017-03-11T06:02:25.966Z,788
2017-03-11T06:03:37.414Z,860
2017-03-11T06:04:48.857Z,940
2017-03-11T06:06:00.301Z,1024
2017-03-11T06:07:11.749Z,1112
2017-03-11T06:08:23.400Z,1200
2017-03-11T06:09:34.834Z,1288
2017-03-11T06:10:46.273Z,1376
2017-03-11T06:11:57.904Z,1468
2017-03-11T06:13:09.338Z,1556
2017-03-11T06:14:21.192Z,1640
2017-03-11T06:15:32.635Z,1712
2017-03-11T06:16:44.287Z,1772
2017-03-11T06:17:55.726Z,1824
2017-03-11T06:19:07.187Z,1884
2017-03-11T06:20:18.810Z,1960
2017-03-11T06:21:30.252Z,2052
2017-03-11T06:22:41.737Z,2192
2017-03-11T06:23:53.212Z,2376
2017-03-11T06:25:04.676Z,2456
2017-03-11T06:26:16.124Z,2456
2017-03-11T06:27:27.549Z,2592
2017-03-11T06:28:38.987Z,2796
2017-03-11T06:29:50.624Z,3524
2017-03-11T06:31:02.264Z,3632
2017-03-11T06:32:14.117Z,3824
2017-03-11T06:33:25.559Z,4100
2017-03-11T06:34:37.190Z,4704
2017-03-11T06:35:49.030Z,4532
2017-03-11T06:37:00.495Z,4460
2017-03-11T06:38:12.233Z,4548
2017-03-11T06:39:23.672Z,4772
2017-03-11T06:40:35.334Z,4640
2017-03-11T06:41:46.780Z,4860
2017-03-11T06:42:58.416Z,5120
2017-03-11T06:44:10.055Z,5112
2017-03-11T06:45:21.494Z,5232
2017-03-11T06:46:33.141Z,5424
2017-03-11T06:47:44.781Z,5664
2017-03-11T06:48:56.232Z,5540
2017-03-11T06:50:07.913Z,5212
2017-03-11T06:51:19.371Z,5520
2017-03-11T06:52:30.799Z,6092
2017-03-11T06:53:42.244Z,5908
2017-03-11T06:54:53.892Z,6228
2017-03-11T06:56:05.345Z,7376
2017-03-11T06:57:16.803Z,8980
2017-03-11T06:58:28.249Z,8988
2017-03-11T06:59:39.890Z,9412
2017-03-11T07:00:51.735Z,10024
2017-03-11T07:02:03.404Z,8248
2017-03-11T07:03:14.842Z,9328
2017-03-11T07:04:26.286Z,10496
2017-03-11T07:05:37.934Z,12768
2017-03-11T07:06:49.376Z,13124
2017-03-11T07:08:00.802Z,8792
2017-03-11T07:09:12.252Z,12348
2017-03-11T07:10:23.687Z,15680
2017-03-11T07:11:35.127Z,18112
2017-03-11T07:12:46.793Z,9548
2017-03-11T07:13:58.241Z,12464
2017-03-11T07:15:09.693Z,19584
2017-03-11T07:16:21.156Z,29504
2017-03-11T07:17:32.636Z,33664
2017-03-11T07:18:44.067Z,36416
2017-03-11T07:19:56.008Z,29536
2017-03-11T07:21:07.649Z,25984
2017-03-11T07:22:19.286Z,27648
2017-03-11T07:23:30.743Z,30016
2017-03-11T07:24:42.374Z,35424
2017-03-11T07:25:53.816Z,39616
2017-03-11T07:27:05.281Z,41600
2017-03-11T07:28:16.757Z,38496
2017-03-11T07:29:28.214Z,40736
2017-03-11T07:30:39.717Z,39296
2017-03-11T07:31:51.166Z,27968
2017-03-11T07:33:02.597Z,28192
2017-03-11T07:34:14.042Z,24160
2017-03-11T07:35:25.509Z,30496
2017-03-11T07:36:36.957Z,49984
2017-03-11T07:37:48.386Z,44128
2017-03-11T07:38:59.833Z,31360
2017-03-11T07:40:11.491Z,20800
2017-03-11T07:41:22.934Z,22976
2017-03-11T07:42:34.642Z,21344
2017-03-11T07:43:46.299Z,37056
2017-03-11T07:44:57.734Z,43104
2017-03-11T07:46:09.380Z,35872
2017-03-11T07:47:20.831Z,30464
2017-03-11T07:48:32.284Z,30496
2017-03-11T07:49:43.940Z,30048
2017-03-11T07:50:55.622Z,39776
2017-03-11T07:52:07.124Z,43616
2017-03-11T07:53:18.772Z,30336
2017-03-11T07:54:30.430Z,27296
2017-03-11T07:55:42.067Z,29376
2017-03-11T07:56:53.715Z,32448
2017-03-11T07:58:05.359Z,39520
2017-03-11T07:59:16.789Z,45440
2017-03-11T08:00:28.245Z,47552
2017-03-11T08:01:39.724Z,55936
2017-03-11T08:02:51.487Z,56992
2017-03-11T08:04:03.140Z,52256
2017-03-11T08:05:14.796Z,52096
2017-03-11T08:06:26.250Z,48640
2017-03-11T08:07:37.700Z,53344
2017-03-11T08:08:49.159Z,66048
2017-03-11T08:10:00.623Z,68416
2017-03-11T08:11:12.102Z,69536
2017-03-11T08:12:23.555Z,69088
2017-03-11T08:13:35.017Z,73536
2017-03-11T08:14:46.881Z,72928
2017-03-11T08:15:58.334Z,73184
2017-03-11T08:17:09.783Z,75424
2017-03-11T08:18:21.235Z,77248
2017-03-11T08:19:32.918Z,78464
2017-03-11T08:20:44.362Z,78208
2017-03-11T08:21:55.831Z,75424
2017-03-11T08:23:07.294Z,71776
2017-03-11T08:24:18.762Z,69024
2017-03-11T08:25:30.444Z,71808
2017-03-11T08:26:41.902Z,77760
2017-03-11T08:27:53.378Z,77216
2017-03-11T08:29:05.052Z,75104
2017-03-11T08:30:16.705Z,76480
2017-03-11T08:31:28.166Z,76800
2017-03-11T08:32:39.635Z,77120
2017-03-11T08:33:51.369Z,78912
2017-03-11T08:35:02.842Z,81536
2017-03-11T08:36:14.305Z,81152
2017-03-11T08:37:25.972Z,83040
2017-03-11T08:38:37.429Z,84896
2017-03-11T08:39:48.887Z,83168
2017-03-11T08:41:00.571Z,86336
2017-03-11T08:42:12.042Z,84032
2017-03-11T08:43:23.727Z,81696
2017-03-11T08:44:35.407Z,81504
2017-03-11T08:45:46.883Z,81600
2017-03-11T08:46:58.371Z,81632
2017-03-11T08:48:10.056Z,79840
2017-03-11T08:49:21.570Z,78848
2017-03-11T08:50:33.020Z,79936
2017-03-11T08:51:44.516Z,81472
2017-03-11T08:52:55.995Z,80480
2017-03-11T08:54:07.659Z,73984
2017-03-11T08:55:19.340Z,71200
2017-03-11T08:56:30.838Z,75072
2017-03-11T08:57:42.325Z,78496
2017-03-11T08:58:53.801Z,81920
2017-03-11T09:00:05.318Z,82816
2017-03-11T09:01:16.798Z,81856
2017-03-11T09:02:28.453Z,78464
2017-03-11T09:03:40.108Z,76160
2017-03-11T09:04:51.575Z,77472
2017-03-11T09:06:03.042Z,81248
2017-03-11T09:07:14.529Z,79904
2017-03-11T09:08:26.008Z,80384
2017-03-11T09:09:37.477Z,80320
2017-03-11T09:10:48.932Z,80160
2017-03-11T09:12:00.398Z,79520
2017-03-11T09:13:11.882Z,77024
2017-03-11T09:14:23.335Z,76672
2017-03-11T09:15:34.841Z,76960
2017-03-11T09:16:46.307Z,77504
2017-03-11T09:17:57.779Z,75168
2017-03-11T09:19:09.256Z,74048
2017-03-11T09:20:20.743Z,77632
2017-03-11T09:21:32.410Z,78624
2017-03-11T09:22:44.070Z,80288
2017-03-11T09:23:55.549Z,79072
2017-03-11T09:25:07.047Z,78400
2017-03-11T09:26:18.762Z,78944
2017-03-11T09:27:30.246Z,78144
2017-03-11T09:28:41.708Z,77344
2017-03-11T09:29:53.580Z,74944
2017-03-11T09:31:05.236Z,77152
2017-03-11T09:32:16.716Z,78208
2017-03-11T09:33:28.211Z,77376
2017-03-11T09:34:39.686Z,77888
2017-03-11T09:35:51.153Z,77824
2017-03-11T09:37:02.854Z,77248
2017-03-11T09:38:14.311Z,75680
2017-03-11T09:39:25.799Z,77728
2017-03-11T09:40:37.288Z,78208
2017-03-11T09:41:48.801Z,77024
2017-03-11T09:43:00.258Z,75840
2017-03-11T09:44:11.703Z,70880
2017-03-11T09:45:23.170Z,67744
2017-03-11T09:46:34.837Z,62368
2017-03-11T09:47:46.304Z,59680
2017-03-11T09:48:57.981Z,64896
2017-03-11T09:50:09.430Z,68608
2017-03-11T09:51:20.924Z,64224
2017-03-11T09:52:32.691Z,67456
2017-03-11T09:53:44.149Z,70528
2017-03-11T09:54:55.602Z,69568
2017-03-11T09:56:07.070Z,63136
2017-03-11T09:57:18.549Z,65312
2017-03-11T09:58:30.213Z,59232
2017-03-11T09:59:42.098Z,56256
2017-03-11T10:00:53.598Z,59520
2017-03-11T10:02:05.074Z,67392
2017-03-11T10:03:17.043Z,68736
2017-03-11T10:04:28.714Z,67872
2017-03-11T10:05:40.205Z,61664
2017-03-11T10:06:51.909Z,64128
2017-03-11T10:08:03.577Z,63648
2017-03-11T10:09:15.051Z,56000
2017-03-11T10:10:26.765Z,49280
2017-03-11T10:11:38.425Z,56224
2017-03-11T10:12:49.873Z,57440
2017-03-11T10:14:01.412Z,57728
2017-03-11T10:15:12.885Z,60832
2017-03-11T10:16:24.358Z,64064
2017-03-11T10:17:35.820Z,64096
2017-03-11T10:18:47.289Z,64256
2017-03-11T10:19:58.791Z,66592
2017-03-11T10:21:10.248Z,65632
2017-03-11T10:22:21.951Z,61632
2017-03-11T10:23:33.402Z,60640
2017-03-11T10:24:44.882Z,61408
2017-03-11T10:25:56.343Z,61504
2017-03-11T10:27:07.813Z,60608
2017-03-11T10:28:19.292Z,61664
2017-03-11T10:29:30.776Z,59680
2017-03-11T10:30:42.250Z,58816
2017-03-11T10:31:53.712Z,59040
2017-03-11T10:33:05.174Z,62592
2017-03-11T10:34:16.654Z,56608
2017-03-11T10:35:28.171Z,57696
2017-03-11T10:36:39.682Z,56128
2017-03-11T10:37:51.164Z,52160
2017-03-11T10:39:02.622Z,54304
2017-03-11T10:40:14.610Z,56736
2017-03-11T10:41:26.071Z,57824
2017-03-11T10:42:37.732Z,54240
2017-03-11T10:43:49.222Z,62400
2017-03-11T10:45:00.692Z,58528
2017-03-11T10:46:12.164Z,59552
2017-03-11T10:47:23.820Z,61376
2017-03-11T10:48:35.271Z,57984
2017-03-11T10:49:46.764Z,58976
2017-03-11T10:50:58.219Z,60704
2017-03-11T10:52:09.874Z,59552
2017-03-11T10:53:21.540Z,60000
2017-03-11T10:54:32.989Z,49312
2017-03-11T10:55:44.463Z,58944
2017-03-11T10:56:55.949Z,59232
2017-03-11T10:58:07.408Z,59264
2017-03-11T10:59:18.883Z,57984
2017-03-11T11:00:30.370Z,53376
2017-03-11T11:01:41.844Z,55904
2017-03-11T11:02:53.315Z,58848
2017-03-11T11:04:04.794Z,56896
2017-03-11T11:05:16.247Z,50176
2017-03-11T11:06:27.722Z,45376
2017-03-11T11:07:39.195Z,42080
2017-03-11T11:08:50.673Z,36224
2017-03-11T11:10:02.122Z,35680
2017-03-11T11:11:13.624Z,37664
2017-03-11T11:12:25.101Z,40256
2017-03-11T11:13:36.565Z,38624
2017-03-11T11:14:48.019Z,45184
2017-03-11T11:15:59.699Z,49536
2017-03-11T11:17:11.181Z,46336
2017-03-11T11:18:22.633Z,43264
2017-03-11T11:19:34.318Z,50752
2017-03-11T11:20:45.992Z,49472
2017-03-11T11:21:57.686Z,54720
2017-03-11T11:23:09.349Z,53696
2017-03-11T11:24:20.815Z,46144
2017-03-11T11:25:32.292Z,48032
2017-03-11T11:26:43.802Z,45024
2017-03-11T11:27:55.268Z,52800
2017-03-11T11:29:06.947Z,48704
2017-03-11T11:30:18.418Z,48128
2017-03-11T11:31:30.101Z,49408
2017-03-11T11:32:41.743Z,48576
2017-03-11T11:33:53.414Z,53312
2017-03-11T11:35:04.895Z,45760
2017-03-11T11:36:16.355Z,46624
2017-03-11T11:37:27.873Z,43008
2017-03-11T11:38:39.541Z,37344
2017-03-11T11:39:50.984Z,40448
2017-03-11T11:41:02.452Z,41120
2017-03-11T11:42:13.909Z,38752
2017-03-11T11:43:25.374Z,37568
2017-03-11T11:44:36.829Z,36128
2017-03-11T11:45:48.283Z,34976
2017-03-11T11:46:59.758Z,33536
2017-03-11T11:48:11.277Z,30912
2017-03-11T11:49:22.741Z,32288
2017-03-11T11:50:34.211Z,29824
2017-03-11T11:51:45.665Z,31296
2017-03-11T11:52:57.126Z,29600
2017-03-11T11:54:08.604Z,28608
2017-03-11T11:55:20.082Z,27680
2017-03-11T11:56:31.546Z,26816
2017-03-11T11:57:43.019Z,26560
2017-03-11T11:58:54.532Z,24800
2017-03-11T12:00:06.018Z,27456
2017-03-11T12:01:17.473Z,26080
2017-03-11T12:02:28.929Z,26912
2017-03-11T12:03:40.391Z,24384
2017-03-11T12:04:51.851Z,23104
2017-03-11T12:06:03.306Z,22464
2017-03-11T12:07:14.784Z,22464
2017-03-11T12:08:26.264Z,22656
2017-03-11T12:09:37.957Z,21056
2017-03-11T12:10:49.430Z,21600
2017-03-11T12:12:01.107Z,23424
2017-03-11T12:13:12.574Z,22400
2017-03-11T12:14:24.239Z,20384
2017-03-11T12:15:35.718Z,19872
2017-03-11T12:16:47.183Z,21056
2017-03-11T12:17:58.671Z,21344
2017-03-11T12:19:10.126Z,19616
2017-03-11T12:20:21.658Z,17856
2017-03-11T12:21:33.116Z,17088
2017-03-11T12:22:44.566Z,16928
2017-03-11T12:23:56.101Z,17152
2017-03-11T12:25:07.568Z,16736
2017-03-11T12:26:19.033Z,15200
2017-03-11T12:27:30.481Z,15456
2017-03-11T12:28:41.961Z,14592
2017-03-11T12:29:53.627Z,14656
2017-03-11T12:31:05.144Z,15040
2017-03-11T12:32:16.602Z,15168
2017-03-11T12:33:28.063Z,14976
2017-03-11T12:34:39.537Z,15136
2017-03-11T12:35:51.015Z,14944
2017-03-11T12:37:02.476Z,13380
2017-03-11T12:38:13.941Z,13728
2017-03-11T12:39:25.393Z,13284
2017-03-11T12:40:37.050Z,13644
2017-03-11T12:41:48.760Z,13916
2017-03-11T12:43:00.246Z,13928
2017-03-11T12:44:11.911Z,13844
2017-03-11T12:45:23.372Z,14344
2017-03-11T12:46:35.162Z,15104
2017-03-11T12:47:46.618Z,14880
2017-03-11T12:48:58.083Z,13580
2017-03-11T12:50:09.531Z,14060
2017-03-11T12:51:20.973Z,13752
2017-03-11T12:52:32.641Z,12772
2017-03-11T12:53:44.107Z,12752
2017-03-11T12:54:55.547Z,12832
2017-03-11T12:56:07.017Z,13300
2017-03-11T12:57:18.456Z,13308
2017-03-11T12:58:29.936Z,12656
2017-03-11T12:59:41.576Z,12772
2017-03-11T13:00:53.245Z,12548
2017-03-11T13:02:04.753Z,12020
2017-03-11T13:03:16.410Z,12240
2017-03-11T13:04:27.888Z,12396
2017-03-11T13:05:39.324Z,12476
2017-03-11T13:06:50.815Z,12620
2017-03-11T13:08:02.273Z,12840
2017-03-11T13:09:13.749Z,12856
2017-03-11T13:10:25.195Z,12416
2017-03-11T13:11:36.664Z,12052
2017-03-11T13:12:48.317Z,11692
2017-03-11T13:13:59.955Z,11304
2017-03-11T13:15:11.416Z,11916
2017-03-11T13:16:22.868Z,12072
2017-03-11T13:17:34.814Z,11248
2017-03-11T13:18:46.482Z,10452
2017-03-11T13:19:57.962Z,10420
2017-03-11T13:21:09.630Z,10432
2017-03-11T13:22:21.082Z,10796
2017-03-11T13:23:32.559Z,11488
2017-03-11T13:24:44.000Z,11564
2017-03-11T13:25:55.460Z,10996
2017-03-11T13:27:06.931Z,10648
2017-03-11T13:28:18.804Z,10572
2017-03-11T13:29:30.270Z,9924
2017-03-11T13:30:41.929Z,10224
2017-03-11T13:31:53.423Z,10464
2017-03-11T13:33:04.886Z,10492
2017-03-11T13:34:16.335Z,10276
2017-03-11T13:35:27.786Z,9692
2017-03-11T13:36:39.454Z,9620
2017-03-11T13:37:51.110Z,9540
2017-03-11T13:39:02.861Z,9672
2017-03-11T13:40:14.302Z,9700
2017-03-11T13:41:25.749Z,9736
2017-03-11T13:42:37.401Z,9700
2017-03-11T13:43:48.858Z,9524
2017-03-11T13:45:00.302Z,9528
2017-03-11T13:46:11.949Z,9076
2017-03-11T13:47:23.631Z,9104
2017-03-11T13:48:35.089Z,8572
2017-03-11T13:49:46.937Z,8880
2017-03-11T13:50:58.397Z,9048
2017-03-11T13:52:09.844Z,8840
2017-03-11T13:53:21.735Z,8812
2017-03-11T13:54:33.199Z,8720
2017-03-11T13:55:44.634Z,8844
2017-03-11T13:56:56.103Z,8932
2017-03-11T13:58:07.551Z,8492
2017-03-11T13:59:18.984Z,8676
2017-03-11T14:00:30.441Z,8568
2017-03-11T14:01:41.908Z,8740
2017-03-11T14:02:53.602Z,8564
2017-03-11T14:04:05.112Z,8748
2017-03-11T14:05:16.586Z,8708
2017-03-11T14:06:28.252Z,8452
2017-03-11T14:07:39.708Z,8424
2017-03-11T14:08:51.176Z,8152
2017-03-11T14:10:02.632Z,8104
2017-03-11T14:11:14.079Z,7968
2017-03-11T14:12:26.149Z,7932
2017-03-11T14:13:37.592Z,7836
2017-03-11T14:14:49.057Z,7844
2017-03-11T14:16:00.512Z,7684
2017-03-11T14:17:11.958Z,7624
2017-03-11T14:18:23.416Z,7528
2017-03-11T14:19:34.864Z,7504
2017-03-11T14:20:46.305Z,7452
2017-03-11T14:21:57.762Z,7228
2017-03-11T14:23:09.425Z,7084
2017-03-11T14:24:20.863Z,7064
2017-03-11T14:25:32.352Z,7032
2017-03-11T14:26:43.806Z,7052
2017-03-11T14:27:55.264Z,7060
2017-03-11T14:29:07.143Z,6980
2017-03-11T14:30:18.596Z,6852
2017-03-11T14:31:30.259Z,6764
2017-03-11T14:32:41.698Z,6588
2017-03-11T14:33:53.138Z,6512
2017-03-11T14:35:04.609Z,6464
2017-03-11T14:36:16.106Z,6376
2017-03-11T14:37:27.778Z,6352
2017-03-11T14:38:39.411Z,6276
2017-03-11T14:39:50.859Z,6164
2017-03-11T14:41:02.320Z,6096
2017-03-11T14:42:13.775Z,5960
2017-03-11T14:43:25.222Z,5876
2017-03-11T14:44:36.667Z,5900
2017-03-11T14:45:48.129Z,5836
2017-03-11T14:46:59.645Z,5812
2017-03-11T14:48:11.079Z,5824
2017-03-11T14:49:22.522Z,5720
2017-03-11T14:50:33.964Z,5608
2017-03-11T14:51:45.446Z,5576
2017-03-11T14:52:56.906Z,5604
2017-03-11T14:54:08.365Z,5368
2017-03-11T14:55:19.817Z,5240
2017-03-11T14:56:31.259Z,5488
2017-03-11T14:57:42.731Z,5568
2017-03-11T14:58:54.172Z,5632
2017-03-11T15:00:05.650Z,5644
2017-03-11T15:01:17.295Z,5720
2017-03-11T15:02:28.747Z,5720
2017-03-11T15:03:40.197Z,5748
2017-03-11T15:04:51.884Z,5816
2017-03-11T15:06:03.325Z,5824
2017-03-11T15:07:14.982Z,5804
2017-03-11T15:08:26.435Z,5820
2017-03-11T15:09:38.103Z,5788
2017-03-11T15:10:49.575Z,5868
2017-03-11T15:12:01.050Z,5892
2017-03-11T15:13:12.506Z,5888
2017-03-11T15:14:24.180Z,5888
2017-03-11T15:15:35.656Z,5852
2017-03-11T15:16:47.115Z,5812
2017-03-11T15:17:58.630Z,5768
2017-03-11T15:19:10.081Z,5688
2017-03-11T15:20:21.554Z,5580
2017-03-11T15:21:33.010Z,5436
2017-03-11T15:22:44.461Z,5392
2017-03-11T15:23:55.937Z,5280
2017-03-11T15:25:07.391Z,5276
2017-03-11T15:26:19.076Z,5196
2017-03-11T15:27:30.732Z,5228
2017-03-11T15:28:42.396Z,5232
2017-03-11T15:29:53.847Z,5196
2017-03-11T15:31:05.501Z,5168
2017-03-11T15:32:17.145Z,5120
2017-03-11T15:33:28.601Z,5072
2017-03-11T15:34:40.052Z,4968
2017-03-11T15:35:51.512Z,4908
2017-03-11T15:37:03.168Z,4860
2017-03-11T15:38:14.655Z,4820
2017-03-11T15:39:26.111Z,4760
2017-03-11T15:40:37.571Z,4720
2017-03-11T15:41:49.241Z,4632
2017-03-11T15:43:00.899Z,4608
2017-03-11T15:44:12.652Z,4548
2017-03-11T15:45:24.104Z,4484
2017-03-11T15:46:35.554Z,4412
2017-03-11T15:47:47.061Z,4344
2017-03-11T15:48:58.526Z,4312
2017-03-11T15:50:09.973Z,4272
2017-03-11T15:51:21.432Z,4240
2017-03-11T15:52:32.885Z,4160
2017-03-11T15:53:44.353Z,4084
2017-03-11T15:54:55.835Z,4048
2017-03-11T15:56:07.307Z,4004
2017-03-11T15:58:28.793Z,3896
2017-03-11T15:59:40.500Z,3824
2017-03-11T16:00:51.934Z,3752
2017-03-11T16:02:03.401Z,3688
2017-03-11T16:03:15.803Z,3620
2017-03-11T16:04:27.273Z,3552
2017-03-11T16:05:38.739Z,3476
2017-03-11T16:06:50.402Z,3424
2017-03-11T16:08:01.847Z,3372
2017-03-11T16:09:13.308Z,3312
2017-03-11T16:10:24.750Z,3240
2017-03-11T16:11:36.399Z,3180
2017-03-11T16:12:48.067Z,3128
2017-03-11T16:13:59.906Z,3068